Time;durP1;ratioP1;P1;durP2;ratioP2;P2;SDS_P1;SDS_P2;PMS_P1;PMS_P2;Temp;Humidity;BMP_temperature;BMP_pressure;BME280_temperature;BME280_humidity;BME280_pressure;Samples;Min_cycle;Max_cycle;Signal;HPM_P1;HPM_P2
2022/01/16 00:04:51;;;;;;;;;34.00;25.75;;;;;;;;5018327;28;51407;-46
2022/01/16 00:07:35;;;;;;;;;29.00;27.00;;;;;;;;5018023;28;51447;-44
2022/01/16 00:10:21;;;;;;;;;32.50;27.00;;;;;;;;5017446;28;51209;-41
2022/01/16 00:13:06;;;;;;;;;37.50;28.50;;;;;;;;5018324;28;51088;-44
2022/01/16 00:15:50;;;;;;;;;32.50;26.50;;;;;;;;5017727;28;51115;-43
2022/01/16 00:18:49;;;;;;;;;30.75;27.25;;;;;;;;5017272;28;51226;-43
2022/01/16 00:21:40;;;;;;;;;31.25;26.50;;;;;;;;5017129;28;51208;-44
2022/01/16 00:24:24;;;;;;;;;35.00;27.00;;;;;;;;5017865;28;51115;-44
2022/01/16 00:27:08;;;;;;;;;33.00;27.75;;;;;;;;5020429;28;51347;-46
2022/01/16 00:29:53;;;;;;;;;25.75;24.75;;;;;;;;5017708;28;51193;-43
2022/01/16 00:32:37;;;;;;;;;22.00;20.50;;;;;;;;5017483;28;51589;-45
2022/01/16 00:35:22;;;;;;;;;29.50;24.75;;;;;;;;5020355;28;51325;-46
2022/01/16 00:38:06;;;;;;;;;32.50;26.00;;;;;;;;5018432;28;50961;-44
2022/01/16 00:40:50;;;;;;;;;27.25;22.00;;;;;;;;5018403;28;51356;-44
2022/01/16 00:43:35;;;;;;;;;32.50;28.00;;;;;;;;5017385;28;51646;-47
2022/01/16 00:46:20;;;;;;;;;25.50;23.25;;;;;;;;5017119;28;51206;-45
2022/01/16 00:49:04;;;;;;;;;28.50;27.50;;;;;;;;5030858;28;51151;-46
2022/01/16 00:51:49;;;;;;;;;31.50;24.00;;;;;;;;5022395;28;51412;-48
2022/01/16 00:54:33;;;;;;;;;32.25;26.25;;;;;;;;5020313;28;51230;-41
2022/01/16 00:57:18;;;;;;;;;31.75;27.75;;;;;;;;5017302;28;51344;-45
2022/01/16 01:00:03;;;;;;;;;29.50;25.00;;;;;;;;5016986;28;51589;-44
2022/01/16 01:02:48;;;;;;;;;33.25;29.75;;;;;;;;5017533;28;51521;-45
2022/01/16 01:05:33;;;;;;;;;34.50;28.00;;;;;;;;5017098;28;51126;-46
2022/01/16 01:08:17;;;;;;;;;34.00;29.25;;;;;;;;5017298;28;51551;-43
2022/01/16 01:11:06;;;;;;;;;27.00;25.50;;;;;;;;5017065;28;51494;-47
2022/01/16 01:14:15;;;;;;;;;30.00;26.50;;;;;;;;5017491;28;51182;-48
2022/01/16 01:17:01;;;;;;;;;31.00;28.75;;;;;;;;5021054;28;51354;-47
2022/01/16 01:19:46;;;;;;;;;34.25;27.75;;;;;;;;5019553;28;51273;-47
2022/01/16 01:22:30;;;;;;;;;35.00;29.00;;;;;;;;5017310;28;51554;-45
2022/01/16 01:25:16;;;;;;;;;29.75;28.00;;;;;;;;5017564;28;51117;-48
2022/01/16 01:28:00;;;;;;;;;39.25;31.75;;;;;;;;5017643;28;51177;-46
2022/01/16 01:30:45;;;;;;;;;41.25;34.25;;;;;;;;5018459;28;51356;-46
2022/01/16 01:33:29;;;;;;;;;38.00;31.75;;;;;;;;5017550;28;51278;-47
2022/01/16 01:36:13;;;;;;;;;36.00;27.00;;;;;;;;5021024;28;51424;-45
2022/01/16 01:38:58;;;;;;;;;34.25;29.00;;;;;;;;5023291;28;51357;-47
2022/01/16 01:41:42;;;;;;;;;31.75;27.75;;;;;;;;5020314;28;51343;-46
2022/01/16 01:53:36;;;;;;;;;27.25;27.25;;;;;;;;5021149;28;51129;-45
2022/01/16 01:56:22;;;;;;;;;30.50;27.50;;;;;;;;5020551;28;52816;-44
2022/01/16 01:59:07;;;;;;;;;32.50;29.75;;;;;;;;4978545;28;52186;-46
2022/01/16 02:01:51;;;;;;;;;36.00;28.75;;;;;;;;5028818;28;51476;-47
2022/01/16 02:04:36;;;;;;;;;35.25;30.50;;;;;;;;5031217;28;51287;-49
2022/01/16 02:07:20;;;;;;;;;39.25;30.75;;;;;;;;5034069;28;51185;-45
2022/01/16 02:10:05;;;;;;;;;51.00;39.00;;;;;;;;5028804;28;51285;-47
2022/01/16 02:12:56;;;;;;;;;53.00;41.75;;;;;;;;5026399;28;51667;-46
2022/01/16 02:36:34;;;;;;;;;41.75;34.75;;;;;;;;5041311;28;51091;-45
2022/01/16 02:39:18;;;;;;;;;46.00;37.50;;;;;;;;5041558;28;52142;-44
2022/01/16 02:42:07;;;;;;;;;38.50;33.75;;;;;;;;5041363;28;51059;-43
2022/01/16 02:45:01;;;;;;;;;46.00;35.75;;;;;;;;5028313;28;50938;-46
2022/01/16 02:47:45;;;;;;;;;44.25;36.50;;;;;;;;5021171;28;51530;-44
2022/01/16 02:50:30;;;;;;;;;46.50;38.75;;;;;;;;5021132;28;51106;-46
2022/01/16 02:53:14;;;;;;;;;44.00;36.00;;;;;;;;5020939;28;51415;-44
2022/01/16 02:56:00;;;;;;;;;49.00;37.25;;;;;;;;5021429;28;51083;-45
2022/01/16 02:58:44;;;;;;;;;44.25;36.75;;;;;;;;5034405;28;52257;-45
2022/01/16 03:01:28;;;;;;;;;46.00;33.25;;;;;;;;5041023;28;51118;-43
2022/01/16 03:04:13;;;;;;;;;44.25;35.00;;;;;;;;5041141;28;51134;-46
2022/01/16 03:07:02;;;;;;;;;49.75;38.00;;;;;;;;5040980;28;51173;-44
2022/01/16 03:10:16;;;;;;;;;49.00;39.00;;;;;;;;5041108;28;51151;-45
2022/01/16 03:13:00;;;;;;;;;54.50;40.50;;;;;;;;5040846;28;51503;-46
2022/01/16 03:15:44;;;;;;;;;49.25;39.50;;;;;;;;5040870;28;51058;-45
2022/01/16 03:24:19;;;;;;;;;50.25;38.75;;;;;;;;5040457;28;51173;-46
2022/01/16 03:27:05;;;;;;;;;48.50;39.00;;;;;;;;5040763;28;51047;-46
2022/01/16 03:29:52;;;;;;;;;44.50;37.50;;;;;;;;5040793;28;51578;-47
2022/01/16 03:32:36;;;;;;;;;45.50;36.00;;;;;;;;5040056;28;51114;-43
2022/01/16 03:35:21;;;;;;;;;41.25;30.25;;;;;;;;5040665;28;51286;-45
2022/01/16 03:38:05;;;;;;;;;44.75;36.00;;;;;;;;5040243;28;51388;-47
2022/01/16 03:40:49;;;;;;;;;42.00;34.75;;;;;;;;5040523;28;51611;-44
2022/01/16 03:43:34;;;;;;;;;38.50;32.50;;;;;;;;5039893;28;51107;-44
2022/01/16 03:46:18;;;;;;;;;42.00;34.00;;;;;;;;5040289;28;51156;-46
2022/01/16 03:49:13;;;;;;;;;44.25;35.75;;;;;;;;5040300;28;51605;-49
2022/01/16 03:51:58;;;;;;;;;44.25;35.50;;;;;;;;5040107;28;51177;-45
2022/01/16 03:54:42;;;;;;;;;40.00;32.00;;;;;;;;5040051;28;51167;-45
2022/01/16 03:57:26;;;;;;;;;40.25;35.25;;;;;;;;5038907;28;51143;-46
2022/01/16 04:00:11;;;;;;;;;41.00;31.00;;;;;;;;5040418;28;51075;-44
2022/01/16 04:02:55;;;;;;;;;41.50;32.75;;;;;;;;5039925;28;51401;-45
2022/01/16 04:05:40;;;;;;;;;40.25;33.00;;;;;;;;5039818;28;51767;-47
2022/01/16 04:08:24;;;;;;;;;38.50;30.75;;;;;;;;5039808;28;51485;-44
2022/01/16 04:11:08;;;;;;;;;42.75;34.75;;;;;;;;5040196;28;51043;-46
2022/01/16 04:14:02;;;;;;;;;40.75;32.25;;;;;;;;5039521;28;51250;-42
2022/01/16 04:16:46;;;;;;;;;42.00;33.00;;;;;;;;5039735;28;51086;-47
2022/01/16 04:19:30;;;;;;;;;38.75;34.00;;;;;;;;5039796;28;51503;-47
2022/01/16 04:22:16;;;;;;;;;38.00;30.75;;;;;;;;5039563;28;51108;-47
2022/01/16 04:25:00;;;;;;;;;46.00;36.00;;;;;;;;5040295;28;51107;-47
2022/01/16 04:27:44;;;;;;;;;43.50;35.00;;;;;;;;5039311;28;51397;-43
2022/01/16 04:30:29;;;;;;;;;44.25;33.75;;;;;;;;5039779;28;51075;-44
2022/01/16 04:33:13;;;;;;;;;44.25;36.00;;;;;;;;5019489;28;51015;-43
2022/01/16 04:35:57;;;;;;;;;47.75;35.00;;;;;;;;5019443;28;51179;-44
2022/01/16 04:38:48;;;;;;;;;39.25;33.50;;;;;;;;5019049;28;51498;-47
2022/01/16 04:44:35;;;;;;;;;45.50;34.50;;;;;;;;5035942;28;51747;-43
2022/01/16 05:07:11;;;;;;;;;45.67;37.67;;;;;;;;4807203;27;4499003;-44
2022/01/16 05:09:55;;;;;;;;;42.75;35.50;;;;;;;;6137305;23;51087;-45
2022/01/16 05:12:43;;;;;;;;;45.25;36.25;;;;;;;;6137133;23;51322;-46
2022/01/16 05:18:30;;;;;;;;;47.25;36.00;;;;;;;;6136536;23;50996;-42
2022/01/16 05:21:14;;;;;;;;;50.25;40.50;;;;;;;;6136276;23;51108;-43
2022/01/16 05:23:58;;;;;;;;;50.00;39.75;;;;;;;;6137338;23;51009;-45
2022/01/16 05:26:43;;;;;;;;;52.75;42.00;;;;;;;;6137113;23;51127;-45
2022/01/16 05:29:28;;;;;;;;;46.50;38.50;;;;;;;;6136293;23;51609;-44
2022/01/16 05:32:16;;;;;;;;;47.00;37.25;;;;;;;;6135835;23;51104;-43
2022/01/16 05:35:00;;;;;;;;;34.50;28.50;;;;;;;;6137451;23;51025;-45
2022/01/16 05:37:44;;;;;;;;;47.25;36.75;;;;;;;;6135893;23;51098;-47
2022/01/16 05:40:29;;;;;;;;;45.75;36.25;;;;;;;;6136526;23;50986;-41
2022/01/16 05:43:13;;;;;;;;;49.00;36.25;;;;;;;;6136368;23;51157;-44
2022/01/16 05:45:57;;;;;;;;;58.75;41.00;;;;;;;;6136943;23;51103;-45
2022/01/16 05:48:42;;;;;;;;;47.25;38.00;;;;;;;;6136515;23;51021;-47
2022/01/16 05:51:26;;;;;;;;;47.25;35.75;;;;;;;;6135670;23;51048;-48
2022/01/16 05:54:10;;;;;;;;;46.25;36.75;;;;;;;;6136633;23;51068;-45
2022/01/16 05:56:55;;;;;;;;;42.25;35.75;;;;;;;;6135552;23;50991;-45
2022/01/16 05:59:39;;;;;;;;;45.75;37.75;;;;;;;;6136485;23;51080;-44
2022/01/16 06:02:24;;;;;;;;;50.00;39.00;;;;;;;;6135971;23;51344;-49
2022/01/16 06:05:09;;;;;;;;;48.00;36.25;;;;;;;;6135443;23;51139;-47
2022/01/16 06:07:58;;;;;;;;;42.50;34.75;;;;;;;;6129763;23;51517;-45
2022/01/16 06:10:42;;;;;;;;;47.00;36.75;;;;;;;;6129711;23;50956;-41
2022/01/16 06:13:26;;;;;;;;;45.75;36.50;;;;;;;;6130313;23;51079;-46
2022/01/16 06:16:10;;;;;;;;;47.50;39.00;;;;;;;;6128847;23;50938;-46
2022/01/16 06:18:55;;;;;;;;;48.50;38.25;;;;;;;;6129565;23;51032;-46
2022/01/16 06:21:39;;;;;;;;;49.75;37.75;;;;;;;;6129385;23;51036;-44
2022/01/16 06:24:24;;;;;;;;;49.75;39.00;;;;;;;;6130228;23;51143;-44
2022/01/16 06:27:08;;;;;;;;;51.75;37.75;;;;;;;;6128844;23;51086;-44
2022/01/16 06:29:52;;;;;;;;;52.50;43.50;;;;;;;;6129268;23;51021;-47
2022/01/16 06:32:37;;;;;;;;;54.25;42.00;;;;;;;;6129588;23;51084;-45
2022/01/16 06:35:22;;;;;;;;;52.50;40.75;;;;;;;;6129264;23;51140;-45
2022/01/16 06:38:06;;;;;;;;;55.25;42.25;;;;;;;;6129835;23;51049;-46
2022/01/16 06:40:50;;;;;;;;;49.75;40.25;;;;;;;;6128847;23;51012;-44
2022/01/16 06:43:35;;;;;;;;;50.75;41.00;;;;;;;;6129111;23;51097;-46
2022/01/16 06:46:19;;;;;;;;;54.25;43.50;;;;;;;;6129291;23;51032;-43
2022/01/16 06:49:04;;;;;;;;;55.00;43.75;;;;;;;;6130299;23;51004;-44
2022/01/16 06:51:48;;;;;;;;;54.50;42.00;;;;;;;;6128609;23;51020;-48
2022/01/16 06:54:33;;;;;;;;;50.00;40.25;;;;;;;;6129182;23;51089;-45
2022/01/16 06:57:17;;;;;;;;;54.00;40.75;;;;;;;;6129584;23;51085;-44
2022/01/16 07:00:04;;;;;;;;;48.00;39.75;;;;;;;;6129550;23;51119;-44
2022/01/16 07:02:48;;;;;;;;;55.50;42.75;;;;;;;;6129951;23;51047;-43
2022/01/16 07:05:32;;;;;;;;;49.25;41.50;;;;;;;;6127857;23;51479;-45
2022/01/16 07:08:22;;;;;;;;;56.50;43.75;;;;;;;;6128958;23;51524;-46
2022/01/16 07:11:07;;;;;;;;;59.75;47.25;;;;;;;;6129147;23;51030;-46
2022/01/16 07:13:51;;;;;;;;;58.25;45.00;;;;;;;;6130000;23;51117;-43
2022/01/16 07:16:35;;;;;;;;;61.25;48.00;;;;;;;;6128213;23;51327;-47
2022/01/16 07:19:19;;;;;;;;;64.75;48.75;;;;;;;;6128313;23;51319;-46
2022/01/16 07:22:04;;;;;;;;;60.50;47.50;;;;;;;;6129476;23;51009;-45
2022/01/16 07:24:49;;;;;;;;;57.50;43.25;;;;;;;;6128989;23;51162;-47
2022/01/16 07:27:33;;;;;;;;;52.75;42.50;;;;;;;;6128680;23;51176;-44
2022/01/16 07:30:17;;;;;;;;;53.50;43.75;;;;;;;;6128474;23;51084;-46
2022/01/16 07:33:06;;;;;;;;;52.50;42.75;;;;;;;;6129056;23;51079;-47
2022/01/16 07:35:50;;;;;;;;;59.25;43.50;;;;;;;;6127652;23;51114;-45
2022/01/16 07:38:34;;;;;;;;;56.00;44.00;;;;;;;;6128956;23;51106;-46
2022/01/16 07:41:19;;;;;;;;;49.25;39.75;;;;;;;;6128651;23;51298;-46
2022/01/16 07:44:03;;;;;;;;;50.00;40.75;;;;;;;;6129477;23;51171;-44
2022/01/16 07:46:48;;;;;;;;;56.00;42.00;;;;;;;;6128244;23;51591;-44
2022/01/16 07:49:32;;;;;;;;;51.00;41.75;;;;;;;;6128385;23;51036;-47
2022/01/16 07:52:16;;;;;;;;;57.75;40.75;;;;;;;;6129488;23;51012;-47
2022/01/16 07:55:01;;;;;;;;;53.00;41.00;;;;;;;;6127891;23;51341;-45
2022/01/16 07:57:45;;;;;;;;;50.75;41.25;;;;;;;;6128159;23;51036;-47
2022/01/16 08:00:31;;;;;;;;;53.00;42.50;;;;;;;;6128553;23;51085;-45
2022/01/16 08:03:15;;;;;;;;;59.50;45.50;;;;;;;;6129291;23;50969;-42
2022/01/16 08:05:59;;;;;;;;;54.50;43.00;;;;;;;;6127752;23;51020;-44
2022/01/16 08:08:44;;;;;;;;;53.25;42.25;;;;;;;;6128090;23;51202;-45
2022/01/16 08:11:28;;;;;;;;;49.75;38.50;;;;;;;;6128766;23;50986;-46
2022/01/16 08:14:13;;;;;;;;;52.50;41.25;;;;;;;;6128814;23;51033;-45
2022/01/16 08:16:57;;;;;;;;;47.00;38.75;;;;;;;;6128086;23;51207;-45
2022/01/16 08:19:41;;;;;;;;;51.00;41.50;;;;;;;;6128533;23;50969;-47
2022/01/16 08:22:26;;;;;;;;;52.25;41.75;;;;;;;;6129156;23;51547;-44
2022/01/16 08:25:11;;;;;;;;;47.00;38.00;;;;;;;;6127796;23;51491;-46
2022/01/16 08:27:55;;;;;;;;;46.25;38.25;;;;;;;;6128223;23;51173;-43
2022/01/16 08:30:39;;;;;;;;;48.75;37.75;;;;;;;;6128322;23;51088;-46
2022/01/16 08:33:24;;;;;;;;;43.75;36.25;;;;;;;;6128482;23;51083;-45
2022/01/16 08:36:08;;;;;;;;;45.50;36.25;;;;;;;;6127569;23;51068;-47
2022/01/16 08:38:54;;;;;;;;;43.25;36.50;;;;;;;;6127772;23;51123;-46
2022/01/16 08:41:38;;;;;;;;;41.75;35.50;;;;;;;;6129178;23;51158;-47
2022/01/16 08:44:23;;;;;;;;;42.50;32.50;;;;;;;;6128779;23;51480;-49
2022/01/16 08:47:07;;;;;;;;;46.25;37.25;;;;;;;;6128386;23;51535;-44
2022/01/16 08:49:51;;;;;;;;;42.00;32.75;;;;;;;;6128248;23;51046;-46
2022/01/16 08:52:36;;;;;;;;;41.00;33.50;;;;;;;;6129038;23;51029;-47
2022/01/16 08:55:20;;;;;;;;;36.25;30.75;;;;;;;;6127371;23;50976;-44
2022/01/16 08:58:05;;;;;;;;;33.50;29.50;;;;;;;;6127894;23;51026;-47
2022/01/16 09:00:50;;;;;;;;;40.75;32.00;;;;;;;;6128566;23;51640;-46
2022/01/16 09:03:34;;;;;;;;;37.75;30.75;;;;;;;;6128656;23;51098;-49
2022/01/16 09:06:19;;;;;;;;;40.25;33.00;;;;;;;;6127219;23;51053;-48
2022/01/16 09:09:03;;;;;;;;;37.50;32.50;;;;;;;;6127247;23;51180;-48
2022/01/16 09:11:48;;;;;;;;;40.25;32.75;;;;;;;;6128606;23;51113;-48
2022/01/16 09:14:32;;;;;;;;;44.00;32.25;;;;;;;;6127625;23;50937;-48
2022/01/16 09:17:16;;;;;;;;;39.75;32.75;;;;;;;;6128381;23;51259;-44
2022/01/16 09:20:01;;;;;;;;;40.25;32.25;;;;;;;;6127868;23;51424;-47
2022/01/16 09:22:46;;;;;;;;;33.75;28.00;;;;;;;;6127464;23;51043;-45
2022/01/16 09:25:31;;;;;;;;;45.25;36.25;;;;;;;;6127357;23;51632;-46
2022/01/16 09:28:15;;;;;;;;;38.50;33.00;;;;;;;;6127666;23;51033;-47
2022/01/16 09:30:59;;;;;;;;;38.00;30.50;;;;;;;;6127815;23;50994;-48
2022/01/16 09:33:44;;;;;;;;;40.50;32.25;;;;;;;;6128070;23;51359;-46
2022/01/16 09:36:28;;;;;;;;;36.50;31.75;;;;;;;;6127693;23;51685;-48
2022/01/16 09:39:13;;;;;;;;;36.75;30.50;;;;;;;;6127609;23;51099;-44
2022/01/16 09:41:57;;;;;;;;;35.00;29.25;;;;;;;;6151136;23;51081;-42
2022/01/16 09:44:41;;;;;;;;;36.75;29.00;;;;;;;;6128294;23;51345;-44
2022/01/16 09:47:26;;;;;;;;;37.75;31.75;;;;;;;;6129050;23;51069;-43
2022/01/16 09:50:11;;;;;;;;;41.75;33.00;;;;;;;;6129769;23;51039;-42
2022/01/16 09:52:55;;;;;;;;;39.00;33.00;;;;;;;;6129342;23;50981;-41
2022/01/16 09:55:40;;;;;;;;;32.00;28.50;;;;;;;;6129372;23;51020;-42
2022/01/16 09:58:25;;;;;;;;;42.25;33.75;;;;;;;;6128882;23;51065;-44
2022/01/16 10:01:09;;;;;;;;;41.75;33.75;;;;;;;;6129006;23;51149;-41
2022/01/16 10:03:53;;;;;;;;;49.25;38.25;;;;;;;;6128805;23;51012;-41
2022/01/16 10:06:39;;;;;;;;;41.50;35.00;;;;;;;;6129583;23;51131;-45
2022/01/16 10:09:23;;;;;;;;;42.50;34.50;;;;;;;;6129245;23;51404;-42
2022/01/16 10:12:19;;;;;;;;;29.50;26.50;;;;;;;;6129899;23;51036;-43
2022/01/16 10:15:35;;;;;;;;;41.50;30.25;;;;;;;;6128739;23;51055;-42
2022/01/16 10:18:31;;;;;;;;;30.50;27.50;;;;;;;;6090915;23;51084;-42
2022/01/16 10:21:30;;;;;;;;;33.25;28.75;;;;;;;;6130006;23;50977;-42
2022/01/16 10:24:15;;;;;;;;;41.75;33.25;;;;;;;;6127715;23;51120;-42
2022/01/16 10:27:09;;;;;;;;;39.00;29.50;;;;;;;;6128879;23;51628;-43
2022/01/16 10:29:57;;;;;;;;;35.00;28.75;;;;;;;;6128483;23;51128;-43
2022/01/16 10:32:42;;;;;;;;;30.25;28.25;;;;;;;;6126393;23;51067;-42
2022/01/16 10:35:28;;;;;;;;;22.75;22.75;;;;;;;;6126704;23;51359;-44
2022/01/16 10:38:16;;;;;;;;;27.50;25.75;;;;;;;;6127460;23;51028;-43
2022/01/16 10:41:01;;;;;;;;;35.25;29.50;;;;;;;;6129572;23;51590;-44
2022/01/16 10:43:46;;;;;;;;;27.25;24.75;;;;;;;;6130034;23;51057;-43
2022/01/16 10:46:30;;;;;;;;;27.25;26.00;;;;;;;;6129121;23;51024;-44
2022/01/16 10:49:15;;;;;;;;;26.50;25.25;;;;;;;;6129915;23;51146;-43
2022/01/16 10:52:02;;;;;;;;;32.00;27.50;;;;;;;;6127829;23;51546;-43
2022/01/16 10:54:46;;;;;;;;;32.00;28.25;;;;;;;;6126244;23;51059;-43
2022/01/16 10:57:31;;;;;;;;;26.75;23.00;;;;;;;;6129845;23;50969;-44
2022/01/16 11:00:17;;;;;;;;;27.00;26.00;;;;;;;;6129006;23;51069;-43
2022/01/16 11:03:03;;;;;;;;;24.25;23.75;;;;;;;;6129113;23;51016;-43
2022/01/16 11:05:49;;;;;;;;;22.50;21.25;;;;;;;;6128654;23;51062;-44
2022/01/16 11:08:34;;;;;;;;;31.00;25.50;;;;;;;;6128506;23;51441;-43
2022/01/16 11:11:20;;;;;;;;;27.75;23.00;;;;;;;;6128018;23;51403;-44
2022/01/16 11:14:06;;;;;;;;;31.00;26.50;;;;;;;;6128491;23;50998;-42
2022/01/16 11:16:50;;;;;;;;;32.00;22.75;;;;;;;;6129500;23;51204;-45
2022/01/16 11:19:35;;;;;;;;;30.75;26.50;;;;;;;;6128670;23;51092;-43
2022/01/16 11:22:24;;;;;;;;;26.50;26.00;;;;;;;;6129198;23;51012;-45
2022/01/16 11:25:23;;;;;;;;;25.50;24.50;;;;;;;;6128682;23;51460;-44
2022/01/16 11:28:18;;;;;;;;;24.75;23.00;;;;;;;;6129468;23;51052;-44
2022/01/16 11:31:04;;;;;;;;;29.25;27.25;;;;;;;;6128573;23;51441;-43
2022/01/16 11:33:48;;;;;;;;;33.25;29.00;;;;;;;;6129247;23;51005;-43
2022/01/16 11:36:33;;;;;;;;;27.75;24.25;;;;;;;;6128304;23;51048;-44
2022/01/16 11:39:17;;;;;;;;;33.75;27.00;;;;;;;;6128806;23;51060;-42
2022/01/16 11:42:03;;;;;;;;;26.50;25.25;;;;;;;;6128997;23;51652;-42
2022/01/16 11:44:54;;;;;;;;;25.50;23.50;;;;;;;;6128648;23;51059;-45
2022/01/16 11:47:56;;;;;;;;;33.25;28.25;;;;;;;;6128465;23;51085;-44
2022/01/16 11:50:40;;;;;;;;;26.75;22.75;;;;;;;;6128196;23;51026;-44
2022/01/16 11:53:43;;;;;;;;;27.75;26.25;;;;;;;;6127749;23;51215;-43
2022/01/16 11:56:40;;;;;;;;;28.25;26.75;;;;;;;;6128203;23;51002;-45
2022/01/16 11:59:26;;;;;;;;;32.00;27.25;;;;;;;;6128215;23;51032;-42
2022/01/16 12:02:10;;;;;;;;;29.00;25.00;;;;;;;;6128230;23;51004;-43
2022/01/16 12:04:55;;;;;;;;;33.75;26.50;;;;;;;;6128196;23;51336;-44
2022/01/16 12:07:45;;;;;;;;;28.75;27.00;;;;;;;;6127667;23;51227;-45
2022/01/16 12:10:43;;;;;;;;;34.50;26.50;;;;;;;;6127864;23;51335;-43
2022/01/16 12:13:49;;;;;;;;;32.75;28.00;;;;;;;;6127823;23;51096;-42
2022/01/16 12:16:40;;;;;;;;;28.75;27.25;;;;;;;;6127419;23;51153;-42
2022/01/16 12:19:36;;;;;;;;;31.50;27.50;;;;;;;;6127611;23;51028;-42
2022/01/16 12:22:42;;;;;;;;;2.50;1.00;;;;;;;;6128334;23;51686;-43
2022/01/16 12:25:34;;;;;;;;;30.75;29.00;;;;;;;;6127454;23;50992;-42
2022/01/16 12:28:22;;;;;;;;;30.00;28.25;;;;;;;;6126382;23;51959;-43
2022/01/16 12:31:08;;;;;;;;;32.75;30.50;;;;;;;;6128418;23;51035;-43
2022/01/16 12:33:53;;;;;;;;;31.75;28.25;;;;;;;;6128427;23;50966;-43
2022/01/16 12:36:37;;;;;;;;;34.50;29.50;;;;;;;;6127530;23;51257;-42
2022/01/16 12:39:22;;;;;;;;;32.75;28.75;;;;;;;;6128406;23;51022;-42
2022/01/16 12:42:06;;;;;;;;;35.25;28.50;;;;;;;;6128352;23;51099;-42
2022/01/16 12:44:51;;;;;;;;;33.75;30.25;;;;;;;;6129079;23;51107;-43
2022/01/16 12:47:36;;;;;;;;;33.75;29.00;;;;;;;;6128933;23;51583;-42
2022/01/16 12:50:20;;;;;;;;;33.75;30.50;;;;;;;;6127809;23;51013;-43
2022/01/16 12:53:05;;;;;;;;;34.50;30.75;;;;;;;;6127925;23;51483;-42
2022/01/16 12:55:50;;;;;;;;;35.75;30.00;;;;;;;;6128421;23;51072;-44
2022/01/16 12:58:34;;;;;;;;;31.25;29.25;;;;;;;;6128456;23;51092;-43
2022/01/16 13:01:19;;;;;;;;;35.75;27.25;;;;;;;;6127646;23;51041;-43
2022/01/16 13:04:03;;;;;;;;;34.25;31.75;;;;;;;;6128617;23;51076;-42
2022/01/16 13:06:47;;;;;;;;;37.50;31.00;;;;;;;;6127892;23;51025;-42
2022/01/16 13:09:32;;;;;;;;;29.25;26.25;;;;;;;;6128204;23;51083;-42
2022/01/16 13:12:16;;;;;;;;;35.75;30.75;;;;;;;;6128003;23;51464;-42
2022/01/16 13:15:01;;;;;;;;;37.00;30.25;;;;;;;;6128360;23;51194;-42
2022/01/16 13:17:45;;;;;;;;;34.50;30.00;;;;;;;;6129554;23;51016;-43
2022/01/16 13:20:30;;;;;;;;;37.25;30.50;;;;;;;;6129399;23;51034;-43
2022/01/16 13:23:14;;;;;;;;;41.50;32.50;;;;;;;;6130243;23;51598;-42
2022/01/16 13:25:59;;;;;;;;;23.50;22.50;;;;;;;;6130087;23;51051;-41
2022/01/16 13:28:44;;;;;;;;;30.50;29.00;;;;;;;;6130074;23;51668;-42
2022/01/16 13:31:29;;;;;;;;;34.50;30.25;;;;;;;;6129264;23;51454;-41
2022/01/16 13:34:14;;;;;;;;;39.50;31.50;;;;;;;;6129927;23;51128;-43
2022/01/16 13:36:59;;;;;;;;;34.50;30.00;;;;;;;;6129712;23;51574;-42
2022/01/16 13:39:46;;;;;;;;;37.50;31.50;;;;;;;;6130910;23;51084;-42
2022/01/16 13:43:02;;;;;;;;;36.75;31.25;;;;;;;;6129465;23;51060;-43
2022/01/16 13:45:49;;;;;;;;;39.50;32.50;;;;;;;;6129950;23;50997;-43
2022/01/16 13:48:33;;;;;;;;;32.00;29.00;;;;;;;;6129894;23;51494;-42
2022/01/16 13:51:20;;;;;;;;;35.75;31.25;;;;;;;;6128845;23;50956;-43
2022/01/16 13:54:11;;;;;;;;;35.75;29.50;;;;;;;;6130322;23;51099;-41
2022/01/16 13:56:57;;;;;;;;;36.00;27.75;;;;;;;;6130101;23;51378;-42
2022/01/16 13:59:55;;;;;;;;;35.50;30.50;;;;;;;;6130098;23;51222;-42
2022/01/16 14:02:39;;;;;;;;;37.75;31.50;;;;;;;;6129901;23;51049;-42
2022/01/16 14:05:24;;;;;;;;;40.00;34.25;;;;;;;;6130450;23;51516;-42
2022/01/16 14:08:17;;;;;;;;;40.75;32.00;;;;;;;;6128964;23;51177;-42
2022/01/16 14:11:08;;;;;;;;;39.00;30.25;;;;;;;;6129404;23;50965;-42
2022/01/16 14:14:03;;;;;;;;;44.75;34.25;;;;;;;;6129503;23;51008;-42
2022/01/16 14:19:52;;;;;;;;;46.25;33.00;;;;;;;;6129619;23;50944;-43
2022/01/16 14:22:38;;;;;;;;;37.00;32.50;;;;;;;;6129102;23;51044;-43
2022/01/16 14:25:24;;;;;;;;;42.25;33.75;;;;;;;;6128728;23;51083;-43
2022/01/16 14:28:09;;;;;;;;;38.75;33.50;;;;;;;;6128784;23;51142;-41
2022/01/16 14:31:01;;;;;;;;;36.50;31.25;;;;;;;;6129562;23;51176;-42
2022/01/16 14:33:48;;;;;;;;;39.50;31.00;;;;;;;;6128845;23;51335;-43
2022/01/16 14:36:32;;;;;;;;;43.75;32.25;;;;;;;;6128656;23;51052;-42
2022/01/16 14:39:17;;;;;;;;;40.00;33.75;;;;;;;;6128829;23;51599;-43
2022/01/16 14:42:02;;;;;;;;;39.25;31.50;;;;;;;;6129090;23;51024;-43
2022/01/16 14:44:48;;;;;;;;;35.50;31.75;;;;;;;;6130188;23;50993;-41
2022/01/16 14:47:32;;;;;;;;;38.25;31.75;;;;;;;;6129637;23;51348;-43
2022/01/16 14:50:16;;;;;;;;;38.50;33.50;;;;;;;;6129080;23;50977;-46
2022/01/16 14:53:01;;;;;;;;;35.50;32.00;;;;;;;;6128590;23;51065;-40
2022/01/16 14:55:45;;;;;;;;;42.25;33.75;;;;;;;;6129711;23;50937;-42
2022/01/16 14:58:30;;;;;;;;;38.50;33.25;;;;;;;;6129487;23;51402;-43
2022/01/16 15:01:14;;;;;;;;;42.50;33.00;;;;;;;;6128446;23;51252;-42
2022/01/16 15:03:59;;;;;;;;;37.50;28.50;;;;;;;;6129297;23;51582;-41
2022/01/16 15:06:44;;;;;;;;;36.75;30.00;;;;;;;;6128768;23;51063;-41
2022/01/16 15:09:28;;;;;;;;;38.25;30.75;;;;;;;;6129336;23;51021;-41
2022/01/16 15:12:13;;;;;;;;;37.75;31.75;;;;;;;;6129074;23;51313;-44
2022/01/16 15:14:57;;;;;;;;;30.00;26.50;;;;;;;;6129055;23;51105;-42
2022/01/16 15:17:43;;;;;;;;;37.25;31.25;;;;;;;;6129777;23;51063;-42
2022/01/16 15:20:32;;;;;;;;;32.25;30.25;;;;;;;;6128540;23;50399;-40
2022/01/16 15:23:16;;;;;;;;;33.75;28.50;;;;;;;;6128602;23;51400;-42
2022/01/16 15:26:01;;;;;;;;;36.00;28.50;;;;;;;;6129208;23;51056;-43
2022/01/16 15:28:46;;;;;;;;;38.75;29.50;;;;;;;;6128221;23;51496;-44
2022/01/16 15:31:30;;;;;;;;;34.25;28.50;;;;;;;;6128289;23;51102;-43
2022/01/16 15:34:15;;;;;;;;;29.50;28.25;;;;;;;;6129095;23;50965;-40
2022/01/16 15:36:59;;;;;;;;;33.75;30.00;;;;;;;;6128823;23;50993;-41
2022/01/16 15:39:46;;;;;;;;;28.50;24.00;;;;;;;;6128640;23;51103;-43
2022/01/16 15:42:31;;;;;;;;;32.75;25.75;;;;;;;;6128676;23;51344;-43
2022/01/16 15:45:15;;;;;;;;;33.25;28.75;;;;;;;;6129816;23;51146;-43
2022/01/16 15:48:00;;;;;;;;;31.25;25.25;;;;;;;;6128086;23;51372;-43
2022/01/16 15:50:44;;;;;;;;;31.50;29.25;;;;;;;;6127838;23;51072;-42
2022/01/16 15:53:28;;;;;;;;;27.25;25.75;;;;;;;;6128398;23;51032;-42
2022/01/16 15:56:13;;;;;;;;;29.25;27.00;;;;;;;;6127349;23;50989;-43
2022/01/16 15:58:57;;;;;;;;;30.50;27.00;;;;;;;;6127049;23;51134;-44
2022/01/16 16:01:42;;;;;;;;;30.00;26.75;;;;;;;;6126815;23;50988;-43
2022/01/16 16:04:26;;;;;;;;;31.25;28.50;;;;;;;;6126705;23;51521;-41
2022/01/16 16:07:10;;;;;;;;;27.00;25.50;;;;;;;;6125950;23;51103;-44
2022/01/16 16:09:57;;;;;;;;;28.25;26.75;;;;;;;;6127536;23;50981;-42
2022/01/16 16:12:45;;;;;;;;;29.00;27.25;;;;;;;;6050736;23;51073;-42
2022/01/16 16:15:30;;;;;;;;;27.00;27.00;;;;;;;;6127156;23;51107;-41
2022/01/16 16:18:14;;;;;;;;;32.75;30.00;;;;;;;;6126686;23;51074;-45
2022/01/16 16:20:59;;;;;;;;;36.25;29.50;;;;;;;;6126530;23;50976;-42
2022/01/16 16:23:43;;;;;;;;;31.50;29.00;;;;;;;;6122392;23;51075;-42
2022/01/16 16:26:28;;;;;;;;;30.00;29.50;;;;;;;;6127285;23;50965;-43
2022/01/16 16:29:12;;;;;;;;;29.75;27.00;;;;;;;;6127536;23;51069;-41
2022/01/16 16:31:56;;;;;;;;;32.50;28.50;;;;;;;;6126641;23;51067;-43
2022/01/16 16:34:42;;;;;;;;;27.75;26.25;;;;;;;;6127827;23;50974;-43
2022/01/16 16:37:26;;;;;;;;;28.00;27.00;;;;;;;;6127154;23;51406;-41
2022/01/16 16:40:11;;;;;;;;;32.25;27.00;;;;;;;;6127243;23;50991;-41
2022/01/16 16:42:55;;;;;;;;;29.25;25.50;;;;;;;;6128228;23;51495;-41
2022/01/16 16:45:39;;;;;;;;;29.75;26.75;;;;;;;;6127325;23;51032;-43
2022/01/16 16:48:24;;;;;;;;;29.50;27.25;;;;;;;;6126004;23;50977;-42
2022/01/16 16:51:08;;;;;;;;;30.00;27.75;;;;;;;;6125676;23;51455;-43
2022/01/16 16:53:53;;;;;;;;;32.75;30.00;;;;;;;;6127121;23;51083;-41
2022/01/16 16:56:37;;;;;;;;;25.25;23.75;;;;;;;;6127226;23;51960;-42
2022/01/16 16:59:21;;;;;;;;;28.50;25.25;;;;;;;;6128323;23;51088;-42
2022/01/16 17:02:10;;;;;;;;;33.25;27.25;;;;;;;;6128282;23;51602;-43
2022/01/16 17:04:54;;;;;;;;;28.75;23.75;;;;;;;;6127607;23;51079;-43
2022/01/16 17:07:38;;;;;;;;;29.75;28.75;;;;;;;;6123814;23;51282;-41
2022/01/16 17:10:23;;;;;;;;;28.50;25.50;;;;;;;;6128014;23;50937;-43
2022/01/16 17:13:07;;;;;;;;;32.75;28.00;;;;;;;;6128137;23;51052;-42